Time;durP1;ratioP1;P1;durP2;ratioP2;P2;SDS_P1;SDS_P2;PMS_P1;PMS_P2;Temp;Humidity;BMP_temperature;BMP_pressure;BME280_temperature;BME280_humidity;BME280_pressure;Samples;Min_cycle;Max_cycle;Signal;HPM_P1;HPM_P2
2021/10/05 00:00:00;;;;;;;0.63;0.33;;;13.70;99.90;;;;;;5090469;28;20184;-81
2021/10/05 00:02:26;;;;;;;0.33;0.33;;;13.60;99.90;;;;;;5086672;28;20184;-81
2021/10/05 00:04:51;;;;;;;0.60;0.60;;;13.40;99.90;;;;;;5084791;28;20229;-80
2021/10/05 00:07:18;;;;;;;0.67;0.67;;;13.50;99.90;;;;;;5089379;28;20184;-81
2021/10/05 00:09:43;;;;;;;0.40;0.40;;;13.70;99.90;;;;;;5092942;28;20177;-81
2021/10/05 00:12:09;;;;;;;0.53;0.53;;;13.60;99.90;;;;;;5079841;28;20311;-81
2021/10/05 00:14:35;;;;;;;0.97;0.50;;;13.60;99.90;;;;;;5085392;28;20207;-81
2021/10/05 00:17:00;;;;;;;0.40;0.40;;;13.50;99.90;;;;;;5091978;28;20176;-81
2021/10/05 00:19:26;;;;;;;0.30;0.30;;;13.40;99.90;;;;;;5082455;28;20192;-81
2021/10/05 00:21:52;;;;;;;0.40;0.33;;;13.60;99.90;;;;;;5088492;28;20204;-81
2021/10/05 00:24:18;;;;;;;0.10;0.10;;;13.60;99.90;;;;;;5077330;28;20212;-81
2021/10/05 00:26:43;;;;;;;1.10;0.60;;;13.70;99.90;;;;;;5085203;28;20633;-81
2021/10/05 00:29:09;;;;;;;1.03;0.40;;;13.70;99.90;;;;;;5085645;28;20188;-81
2021/10/05 00:31:34;;;;;;;0.70;0.70;;;13.70;99.90;;;;;;5082838;28;20693;-81
2021/10/05 00:34:00;;;;;;;0.67;0.50;;;13.60;99.90;;;;;;5078739;28;20296;-80
2021/10/05 00:36:26;;;;;;;0.80;0.33;;;13.50;99.90;;;;;;5092172;28;20182;-81
2021/10/05 00:38:51;;;;;;;0.67;0.67;;;13.30;99.90;;;;;;5088688;28;20271;-81
2021/10/05 00:41:17;;;;;;;0.30;0.30;;;13.40;99.90;;;;;;5081008;28;20514;-81
2021/10/05 00:43:43;;;;;;;0.50;0.50;;;13.60;99.90;;;;;;5083417;28;20213;-81
2021/10/05 00:46:09;;;;;;;0.60;0.60;;;13.80;99.90;;;;;;5077916;28;20182;-81
2021/10/05 00:48:35;;;;;;;0.67;0.67;;;13.70;99.90;;;;;;5074028;28;20178;-81
2021/10/05 00:51:00;;;;;;;0.50;0.50;;;13.60;99.90;;;;;;5089700;28;20173;-82
2021/10/05 00:53:26;;;;;;;1.33;0.50;;;13.60;99.90;;;;;;5094072;28;20262;-81
2021/10/05 00:55:52;;;;;;;0.23;0.23;;;13.50;99.90;;;;;;5084388;28;20330;-81
2021/10/05 00:58:18;;;;;;;0.40;0.30;;;13.70;99.90;;;;;;5089453;28;20696;-81
2021/10/05 01:00:43;;;;;;;0.33;0.33;;;13.70;99.90;;;;;;5077345;28;20279;-81
2021/10/05 01:03:09;;;;;;;0.10;0.10;;;13.80;99.90;;;;;;5078842;28;20336;-81
2021/10/05 01:05:35;;;;;;;1.97;0.57;;;13.70;99.90;;;;;;5081364;28;20181;-81
2021/10/05 01:08:02;;;;;;;0.43;0.43;;;13.60;99.90;;;;;;5072438;28;20176;-81
2021/10/05 01:10:28;;;;;;;0.33;0.33;;;13.50;99.90;;;;;;5086947;28;20242;-81
2021/10/05 01:12:54;;;;;;;0.50;0.47;;;13.60;99.90;;;;;;5086266;28;20222;-81
2021/10/05 01:15:29;;;;;;;0.40;0.30;;;13.60;99.90;;;;;;5076846;28;20223;-81
2021/10/05 01:17:55;;;;;;;0.40;0.40;;;13.60;99.90;;;;;;5076441;28;20179;-81
2021/10/05 01:20:20;;;;;;;0.27;0.27;;;13.70;99.90;;;;;;5088356;28;20181;-81
2021/10/05 01:22:47;;;;;;;0.53;0.47;;;13.80;99.90;;;;;;5088879;28;20591;-81
2021/10/05 01:25:14;;;;;;;0.10;0.10;;;13.80;99.90;;;;;;5081627;28;20209;-81
2021/10/05 01:27:46;;;;;;;0.20;0.20;;;13.90;99.90;;;;;;5091713;28;20196;-81
2021/10/05 01:30:12;;;;;;;0.40;0.20;;;13.90;99.90;;;;;;5088816;28;20183;-81
2021/10/05 01:32:38;;;;;;;0.83;0.30;;;13.90;99.90;;;;;;5086735;28;20191;-81
2021/10/05 01:35:05;;;;;;;0.50;0.30;;;14.00;99.90;;;;;;5080994;28;20200;-81
2021/10/05 01:37:31;;;;;;;0.40;0.40;;;14.00;99.90;;;;;;5076717;28;20267;-81
2021/10/05 01:39:56;;;;;;;0.30;0.30;;;13.90;99.90;;;;;;5086743;28;20686;-81
2021/10/05 01:42:22;;;;;;;0.50;0.50;;;14.00;99.90;;;;;;5076349;28;20204;-81
2021/10/05 01:44:48;;;;;;;0.20;0.20;;;14.00;99.90;;;;;;5087411;28;20563;-81
2021/10/05 01:47:13;;;;;;;0.10;0.10;;;14.00;99.90;;;;;;5070971;28;20185;-81
2021/10/05 01:49:39;;;;;;;0.23;0.23;;;13.90;99.90;;;;;;5083514;28;20212;-81
2021/10/05 01:52:07;;;;;;;0.20;0.20;;;13.90;99.90;;;;;;5079931;28;20175;-81
2021/10/05 01:54:33;;;;;;;0.50;0.50;;;14.00;99.90;;;;;;5067117;28;20223;-81
2021/10/05 01:56:59;;;;;;;1.60;1.40;;;14.00;99.90;;;;;;5073191;28;20173;-81
2021/10/05 01:59:24;;;;;;;0.50;0.50;;;14.00;99.90;;;;;;5084484;28;20546;-81
2021/10/05 02:01:50;;;;;;;0.30;0.30;;;14.00;99.90;;;;;;5088901;28;20180;-82
2021/10/05 02:04:16;;;;;;;0.20;0.20;;;14.00;99.90;;;;;;5079795;28;20216;-82
2021/10/05 02:06:41;;;;;;;1.60;0.83;;;13.90;99.90;;;;;;5080973;28;20176;-82
2021/10/05 02:09:10;;;;;;;0.20;0.20;;;13.90;99.90;;;;;;5085171;28;20184;-81
2021/10/05 02:11:36;;;;;;;0.30;0.30;;;13.70;99.90;;;;;;5081470;28;20564;-81
2021/10/05 02:14:02;;;;;;;0.63;0.63;;;13.70;99.90;;;;;;5091081;28;20200;-81
2021/10/05 02:16:28;;;;;;;0.40;0.40;;;13.40;99.90;;;;;;5075247;28;20190;-81
2021/10/05 02:18:54;;;;;;;0.30;0.30;;;13.40;99.90;;;;;;5080324;28;20172;-81
2021/10/05 02:21:20;;;;;;;0.30;0.30;;;13.40;99.90;;;;;;5081302;28;20551;-81
2021/10/05 02:26:32;;;;;;;0.27;0.10;;;13.30;99.90;;;;;;5086466;28;20306;-81
2021/10/05 02:28:58;;;;;;;0.10;0.10;;;13.30;99.90;;;;;;5080652;28;20175;-81
2021/10/05 02:31:24;;;;;;;0.30;0.30;;;13.40;99.90;;;;;;5072234;28;20182;-81
2021/10/05 02:33:50;;;;;;;0.60;0.60;;;13.50;99.90;;;;;;5080092;28;20213;-81
2021/10/05 02:36:15;;;;;;;0.43;0.40;;;13.50;99.90;;;;;;5086070;28;20199;-81
2021/10/05 02:38:41;;;;;;;0.37;0.37;;;13.50;99.90;;;;;;5081159;28;20242;-81
2021/10/05 02:41:07;;;;;;;0.53;0.20;;;13.50;99.90;;;;;;5083661;28;20225;-81
2021/10/05 02:43:32;;;;;;;0.20;0.20;;;13.50;99.90;;;;;;5078936;28;20264;-81
2021/10/05 02:45:58;;;;;;;0.30;0.30;;;13.50;99.90;;;;;;5081920;28;20173;-81
2021/10/05 02:48:24;;;;;;;0.20;0.20;;;13.40;99.90;;;;;;5092656;28;20182;-81
2021/10/05 02:50:49;;;;;;;0.20;0.20;;;13.50;99.90;;;;;;5087124;28;20193;-81
2021/10/05 02:53:15;;;;;;;0.10;0.10;;;13.30;99.90;;;;;;5073812;28;20188;-81
2021/10/05 02:55:41;;;;;;;0.27;0.23;;;13.40;99.90;;;;;;5075403;28;20230;-81
2021/10/05 02:58:07;;;;;;;0.20;0.20;;;13.50;99.90;;;;;;5089522;28;20233;-81
2021/10/05 03:00:33;;;;;;;0.23;0.23;;;13.60;99.90;;;;;;5081362;28;20334;-81
2021/10/05 03:02:59;;;;;;;0.30;0.30;;;13.70;99.90;;;;;;5073078;28;20235;-81
2021/10/05 03:05:24;;;;;;;0.30;0.30;;;13.70;99.90;;;;;;5089804;28;20574;-81
2021/10/05 03:07:50;;;;;;;0.43;0.43;;;13.70;99.90;;;;;;5087111;28;20621;-81
2021/10/05 03:10:15;;;;;;;0.30;0.30;;;13.70;99.90;;;;;;5088274;28;20177;-81
2021/10/05 03:12:41;;;;;;;0.60;0.33;;;13.70;99.90;;;;;;5080524;28;20185;-81
2021/10/05 03:15:07;;;;;;;0.70;0.70;;;13.40;99.90;;;;;;5091898;28;20207;-81
2021/10/05 03:17:33;;;;;;;0.40;0.40;;;13.30;99.90;;;;;;5092404;28;20191;-81
2021/10/05 03:19:58;;;;;;;0.20;0.20;;;13.40;99.90;;;;;;5075490;28;20549;-81
2021/10/05 03:22:24;;;;;;;0.30;0.30;;;13.30;99.90;;;;;;5084635;28;20193;-81
2021/10/05 03:24:49;;;;;;;0.10;0.10;;;13.20;99.90;;;;;;5087383;28;20685;-81
2021/10/05 03:27:15;;;;;;;0.20;0.20;;;13.10;99.90;;;;;;5084918;28;20220;-81
2021/10/05 03:29:40;;;;;;;0.30;0.30;;;13.10;99.90;;;;;;5084066;28;20180;-81
2021/10/05 03:32:07;;;;;;;0.40;0.40;;;13.10;99.90;;;;;;5081143;28;20186;-81
2021/10/05 03:34:33;;;;;;;1.07;0.60;;;13.00;99.90;;;;;;5081292;28;20204;-81
2021/10/05 03:36:58;;;;;;;0.80;0.77;;;13.00;99.90;;;;;;5072717;28;20168;-81
2021/10/05 03:39:25;;;;;;;0.60;0.53;;;13.10;99.90;;;;;;5075803;28;20243;-81
2021/10/05 03:41:51;;;;;;;0.43;0.43;;;13.10;99.90;;;;;;5091499;28;20184;-81
2021/10/05 03:44:16;;;;;;;0.20;0.20;;;13.20;99.90;;;;;;5083934;28;20224;-81
2021/10/05 03:46:42;;;;;;;0.50;0.50;;;13.40;99.90;;;;;;5084168;28;20188;-81
2021/10/05 03:49:07;;;;;;;0.30;0.30;;;13.50;99.90;;;;;;5080602;28;20193;-81
2021/10/05 03:51:33;;;;;;;0.53;0.53;;;13.40;99.90;;;;;;5090099;28;20245;-81
2021/10/05 03:53:59;;;;;;;0.50;0.43;;;13.50;99.90;;;;;;5103582;28;20642;-81
2021/10/05 03:56:24;;;;;;;0.27;0.27;;;13.50;99.90;;;;;;5090807;28;20179;-81
2021/10/05 03:58:50;;;;;;;0.20;0.20;;;13.60;99.90;;;;;;5078388;28;20185;-81
2021/10/05 04:01:15;;;;;;;0.50;0.50;;;13.70;99.90;;;;;;5084120;28;20670;-81
2021/10/05 04:03:41;;;;;;;1.00;0.70;;;13.70;99.90;;;;;;5095710;28;20207;-81
2021/10/05 04:06:09;;;;;;;0.30;0.30;;;13.70;99.90;;;;;;5094468;28;20611;-81
2021/10/05 04:08:35;;;;;;;0.40;0.40;;;13.70;99.90;;;;;;5092271;28;20173;-81
2021/10/05 04:11:01;;;;;;;0.30;0.30;;;13.50;99.90;;;;;;5093947;28;20223;-81
2021/10/05 04:13:27;;;;;;;0.67;0.50;;;13.50;99.90;;;;;;5086210;28;20234;-81
2021/10/05 04:15:53;;;;;;;0.93;0.73;;;13.60;99.90;;;;;;5089748;28;20203;-81
2021/10/05 04:18:19;;;;;;;0.30;0.30;;;13.60;99.90;;;;;;5087373;28;20215;-80
2021/10/05 04:20:44;;;;;;;0.60;0.53;;;13.60;99.90;;;;;;5086056;28;20176;-81
2021/10/05 04:23:10;;;;;;;0.97;0.60;;;13.30;99.90;;;;;;5082021;28;20854;-81
2021/10/05 04:25:35;;;;;;;1.00;0.40;;;13.10;99.90;;;;;;5088038;28;20182;-81
2021/10/05 04:28:01;;;;;;;1.30;1.00;;;13.20;99.90;;;;;;5069916;28;20225;-81
2021/10/05 04:30:26;;;;;;;1.10;1.00;;;13.20;99.90;;;;;;5080411;28;20184;-81
2021/10/05 04:32:52;;;;;;;0.30;0.30;;;13.30;99.90;;;;;;5089566;28;20240;-81
2021/10/05 04:35:18;;;;;;;0.33;0.33;;;13.40;99.90;;;;;;5085470;28;20200;-81
2021/10/05 04:37:44;;;;;;;0.50;0.40;;;13.50;99.90;;;;;;5082287;28;20303;-82
2021/10/05 04:40:10;;;;;;;1.07;0.53;;;13.30;99.90;;;;;;5082889;28;20184;-82
2021/10/05 04:42:35;;;;;;;0.47;0.33;;;13.20;99.90;;;;;;5091759;28;20833;-81
2021/10/05 04:45:01;;;;;;;0.40;0.40;;;13.30;99.90;;;;;;5083853;28;20206;-80
2021/10/05 04:47:27;;;;;;;0.20;0.20;;;13.40;99.90;;;;;;5084978;28;20183;-81
2021/10/05 04:49:53;;;;;;;0.50;0.50;;;13.50;99.90;;;;;;5080141;28;20277;-81
2021/10/05 04:52:18;;;;;;;0.80;0.80;;;13.50;99.90;;;;;;5090074;28;20258;-81
2021/10/05 04:54:44;;;;;;;0.30;0.30;;;13.60;99.90;;;;;;5076697;28;20201;-81
2021/10/05 04:57:09;;;;;;;0.87;0.40;;;13.70;99.90;;;;;;5090332;28;20186;-81
2021/10/05 04:59:35;;;;;;;0.10;0.10;;;13.60;99.90;;;;;;5086323;28;20184;-81
2021/10/05 05:02:01;;;;;;;1.17;1.07;;;13.70;99.90;;;;;;5085299;28;20192;-81
2021/10/05 05:04:26;;;;;;;0.50;0.50;;;13.70;99.90;;;;;;5083370;28;20262;-82
2021/10/05 05:06:52;;;;;;;0.30;0.30;;;13.60;99.90;;;;;;5087575;28;20170;-82
2021/10/05 05:09:18;;;;;;;0.70;0.70;;;13.70;99.90;;;;;;5083818;28;20268;-82
2021/10/05 05:11:44;;;;;;;0.30;0.30;;;13.70;99.90;;;;;;5086986;28;20641;-82
2021/10/05 05:14:11;;;;;;;0.37;0.37;;;13.70;99.90;;;;;;5093027;28;20295;-80
2021/10/05 05:16:39;;;;;;;0.30;0.30;;;13.40;99.90;;;;;;5089742;28;20569;-80
2021/10/05 05:19:05;;;;;;;0.40;0.40;;;13.20;99.90;;;;;;5080169;28;20193;-80
2021/10/05 05:21:31;;;;;;;0.73;0.30;;;13.20;99.90;;;;;;5086768;28;20190;-80
2021/10/05 05:23:57;;;;;;;0.60;0.47;;;13.10;99.90;;;;;;5079396;28;20684;-80
2021/10/05 05:26:23;;;;;;;0.20;0.20;;;13.10;99.90;;;;;;5077636;28;20685;-80
2021/10/05 05:28:49;;;;;;;0.53;0.53;;;13.20;99.90;;;;;;5075719;28;20177;-80
2021/10/05 05:31:15;;;;;;;0.70;0.70;;;13.10;99.90;;;;;;5083189;28;20535;-80
2021/10/05 05:33:40;;;;;;;0.67;0.67;;;13.30;99.90;;;;;;5077271;28;20692;-80
2021/10/05 05:36:06;;;;;;;0.20;0.20;;;13.40;99.90;;;;;;5085673;28;20181;-81
2021/10/05 05:38:32;;;;;;;1.00;0.50;;;13.50;99.90;;;;;;5071989;28;20216;-80
2021/10/05 05:40:57;;;;;;;4.73;0.90;;;13.60;99.90;;;;;;5084024;28;20184;-82
2021/10/05 05:43:23;;;;;;;0.27;0.27;;;13.60;99.90;;;;;;5085182;28;20204;-82
2021/10/05 05:45:49;;;;;;;0.30;0.30;;;13.60;99.90;;;;;;5076697;28;20183;-82
2021/10/05 05:48:14;;;;;;;0.30;0.30;;;13.70;99.90;;;;;;5082186;28;20248;-83
2021/10/05 05:50:41;;;;;;;0.40;0.40;;;13.80;99.90;;;;;;5086868;28;20630;-83
2021/10/05 05:53:07;;;;;;;0.87;0.57;;;13.70;99.90;;;;;;5078841;28;20185;-82
2021/10/05 05:55:32;;;;;;;0.53;0.47;;;13.90;99.90;;;;;;5081737;28;20192;-81
2021/10/05 05:57:58;;;;;;;0.60;0.60;;;13.80;99.90;;;;;;5076608;28;20184;-81
2021/10/05 06:00:24;;;;;;;0.47;0.47;;;13.80;99.90;;;;;;5085092;28;20184;-81
2021/10/05 06:02:50;;;;;;;0.50;0.50;;;13.80;99.90;;;;;;5085828;28;20205;-82
2021/10/05 06:05:15;;;;;;;0.53;0.40;;;13.80;99.90;;;;;;5084021;28;20200;-81
2021/10/05 06:07:41;;;;;;;2.40;0.90;;;13.50;99.90;;;;;;5076550;28;20179;-82
2021/10/05 06:10:08;;;;;;;1.57;0.57;;;13.60;99.90;;;;;;5085921;28;20218;-81
2021/10/05 06:12:38;;;;;;;0.80;0.50;;;13.70;99.90;;;;;;5084708;28;20605;-81
2021/10/05 06:15:07;;;;;;;4.93;0.47;;;13.60;99.90;;;;;;5090178;28;20192;-81
2021/10/05 06:17:32;;;;;;;0.10;0.10;;;13.50;99.90;;;;;;5077709;28;20597;-81
2021/10/05 06:19:58;;;;;;;1.27;0.43;;;13.60;99.90;;;;;;5080596;28;20181;-81
2021/10/05 06:22:24;;;;;;;0.70;0.70;;;13.60;99.90;;;;;;5072204;28;20177;-81
2021/10/05 06:24:49;;;;;;;0.33;0.33;;;13.50;99.90;;;;;;5083039;28;20215;-81
2021/10/05 06:27:15;;;;;;;0.30;0.30;;;13.40;99.90;;;;;;5087476;28;20196;-81
2021/10/05 06:29:40;;;;;;;0.30;0.30;;;13.50;99.90;;;;;;5084010;28;20632;-81
2021/10/05 06:32:06;;;;;;;0.40;0.27;;;13.60;99.90;;;;;;5084995;28;20180;-81
2021/10/05 06:34:32;;;;;;;0.27;0.27;;;13.60;99.90;;;;;;5086400;28;20197;-82
2021/10/05 06:36:57;;;;;;;0.30;0.30;;;13.30;99.90;;;;;;5087673;28;20179;-85
2021/10/05 06:39:23;;;;;;;0.20;0.20;;;13.40;99.90;;;;;;5084560;28;20321;-83
2021/10/05 06:41:48;;;;;;;0.40;0.40;;;13.50;99.90;;;;;;5090639;28;20176;-82
2021/10/05 06:44:14;;;;;;;0.40;0.40;;;13.70;99.90;;;;;;5086838;28;20262;-83
2021/10/05 06:46:39;;;;;;;0.47;0.47;;;13.40;99.90;;;;;;5081013;28;20187;-82
2021/10/05 06:49:05;;;;;;;2.57;2.10;;;13.50;99.90;;;;;;5087695;28;20171;-82
2021/10/05 06:51:31;;;;;;;0.23;0.23;;;13.60;99.90;;;;;;5082566;28;20169;-82
2021/10/05 06:53:56;;;;;;;0.70;0.43;;;13.50;99.90;;;;;;5086906;28;20205;-82
2021/10/05 06:56:23;;;;;;;0.93;0.50;;;13.70;99.90;;;;;;5058609;28;20185;-82
2021/10/05 06:58:48;;;;;;;0.60;0.50;;;13.70;99.90;;;;;;5080015;28;20701;-82
2021/10/05 07:01:14;;;;;;;0.27;0.27;;;13.80;99.90;;;;;;5066695;28;20181;-81
2021/10/05 07:03:39;;;;;;;0.20;0.20;;;13.90;99.90;;;;;;5085784;28;20706;-81
2021/10/05 07:06:05;;;;;;;0.67;0.67;;;13.80;99.90;;;;;;5090015;28;20176;-81
2021/10/05 07:08:30;;;;;;;0.60;0.60;;;13.80;99.90;;;;;;5093331;28;20597;-81
2021/10/05 07:10:56;;;;;;;0.40;0.40;;;13.70;99.90;;;;;;5083143;28;20184;-81
2021/10/05 07:13:22;;;;;;;1.70;0.47;;;13.70;99.90;;;;;;5083724;28;20190;-81
2021/10/05 07:15:47;;;;;;;0.57;0.50;;;13.70;99.90;;;;;;5082026;28;20204;-81
2021/10/05 07:18:13;;;;;;;0.50;0.50;;;13.80;99.90;;;;;;5087185;28;20638;-81
2021/10/05 07:20:38;;;;;;;0.47;0.47;;;13.90;99.90;;;;;;5080654;28;20242;-81
2021/10/05 07:23:04;;;;;;;0.50;0.30;;;14.00;99.90;;;;;;5067038;28;20570;-82
2021/10/05 07:25:30;;;;;;;0.50;0.43;;;14.00;99.90;;;;;;5084429;28;20196;-81
2021/10/05 07:27:57;;;;;;;0.73;0.57;;;14.00;99.90;;;;;;5084912;28;20193;-81
2021/10/05 07:30:23;;;;;;;0.50;0.50;;;14.10;99.90;;;;;;5077301;28;20184;-81
2021/10/05 07:32:54;;;;;;;0.40;0.40;;;14.20;99.90;;;;;;5079705;28;20635;-82
2021/10/05 07:35:20;;;;;;;0.60;0.60;;;14.30;99.90;;;;;;5076837;28;20209;-81
2021/10/05 07:37:47;;;;;;;0.40;0.40;;;14.30;99.90;;;;;;5075535;28;20574;-81
2021/10/05 07:40:15;;;;;;;0.33;0.33;;;14.30;99.90;;;;;;5084355;28;20191;-81
2021/10/05 07:42:41;;;;;;;0.23;0.23;;;14.40;99.90;;;;;;5084641;28;20560;-81
2021/10/05 07:45:07;;;;;;;1.67;0.77;;;14.40;99.90;;;;;;5087363;28;20203;-81
2021/10/05 07:47:33;;;;;;;2.30;0.93;;;14.50;99.90;;;;;;5086747;28;20176;-81
2021/10/05 07:49:58;;;;;;;0.47;0.40;;;14.60;99.90;;;;;;5086471;28;20174;-81
2021/10/05 07:52:24;;;;;;;0.80;0.80;;;14.80;99.90;;;;;;5088787;28;20215;-81
2021/10/05 07:54:50;;;;;;;0.20;0.20;;;14.70;99.90;;;;;;5098957;28;20204;-81
2021/10/05 07:57:15;;;;;;;0.70;0.70;;;14.60;99.90;;;;;;5094533;28;20212;-81
2021/10/05 07:59:41;;;;;;;0.53;0.53;;;14.60;99.90;;;;;;5090501;28;20259;-81
2021/10/05 08:02:06;;;;;;;1.30;0.90;;;14.50;99.90;;;;;;5094382;28;20243;-81
2021/10/05 08:04:32;;;;;;;1.93;0.90;;;14.50;99.90;;;;;;5094157;28;20196;-80
2021/10/05 08:06:57;;;;;;;0.47;0.47;;;14.60;99.90;;;;;;5086863;28;20176;-80
2021/10/05 08:09:23;;;;;;;0.67;0.67;;;14.70;99.90;;;;;;5092561;28;20207;-81
2021/10/05 08:11:49;;;;;;;0.20;0.20;;;14.80;99.90;;;;;;5089124;28;20181;-81
2021/10/05 08:14:14;;;;;;;0.70;0.70;;;15.00;99.90;;;;;;5089713;28;20204;-81
2021/10/05 08:16:40;;;;;;;0.50;0.40;;;15.00;99.90;;;;;;5098342;28;20177;-81
2021/10/05 08:19:06;;;;;;;0.77;0.57;;;14.90;99.90;;;;;;5079605;28;20175;-81
2021/10/05 08:21:32;;;;;;;2.90;1.07;;;15.00;99.90;;;;;;5076924;28;20182;-82
2021/10/05 08:23:58;;;;;;;1.47;0.97;;;14.90;99.90;;;;;;5075558;28;20209;-81
2021/10/05 08:26:24;;;;;;;5.30;0.70;;;15.00;99.90;;;;;;5067804;28;20250;-81
2021/10/05 08:28:50;;;;;;;1.07;0.77;;;15.10;99.90;;;;;;5067182;28;20213;-82
2021/10/05 08:31:18;;;;;;;1.63;0.97;;;15.10;99.90;;;;;;5077034;28;20177;-82
2021/10/05 08:33:45;;;;;;;1.27;0.60;;;15.20;99.90;;;;;;5088416;28;20199;-82
2021/10/05 08:36:10;;;;;;;1.30;0.63;;;15.20;99.90;;;;;;5084612;28;20216;-82
2021/10/05 08:38:36;;;;;;;0.83;0.60;;;15.30;99.90;;;;;;5082372;28;20185;-83
2021/10/05 08:41:05;;;;;;;0.70;0.70;;;15.30;99.90;;;;;;5095866;28;20258;-83
2021/10/05 08:43:33;;;;;;;0.10;0.10;;;15.10;99.90;;;;;;5082871;28;20212;-83
2021/10/05 08:46:00;;;;;;;0.73;0.43;;;15.00;99.90;;;;;;5081057;28;20166;-84
2021/10/05 08:48:30;;;;;;;0.57;0.57;;;15.00;99.90;;;;;;5085988;28;20179;-83
2021/10/05 08:50:56;;;;;;;0.60;0.47;;;15.10;99.90;;;;;;5073000;28;20169;-83
2021/10/05 08:53:22;;;;;;;0.83;0.50;;;15.20;99.90;;;;;;5077585;28;20561;-83
2021/10/05 08:55:47;;;;;;;0.77;0.73;;;15.30;99.90;;;;;;5068071;28;20820;-81
2021/10/05 08:58:13;;;;;;;0.77;0.77;;;15.40;99.90;;;;;;5061601;28;20194;-81
2021/10/05 09:00:39;;;;;;;0.70;0.70;;;15.30;99.90;;;;;;5069873;28;20184;-82
2021/10/05 09:03:04;;;;;;;0.90;0.90;;;15.30;99.90;;;;;;5065186;28;20197;-81
2021/10/05 09:05:30;;;;;;;0.57;0.57;;;15.30;99.90;;;;;;5064475;28;20652;-81
2021/10/05 09:07:57;;;;;;;1.00;0.70;;;15.20;99.90;;;;;;5073900;28;20261;-82
2021/10/05 09:10:27;;;;;;;0.70;0.50;;;15.20;99.90;;;;;;5076484;28;20177;-81
2021/10/05 09:12:54;;;;;;;0.63;0.60;;;15.10;99.90;;;;;;5075727;28;20180;-82
2021/10/05 09:15:22;;;;;;;1.17;1.13;;;15.10;99.90;;;;;;5071015;28;20204;-82
2021/10/05 09:17:58;;;;;;;1.43;1.07;;;15.00;99.90;;;;;;5106512;28;20214;-81
2021/10/05 09:20:27;;;;;;;6.07;1.57;;;15.00;99.90;;;;;;5090190;28;20218;-82
2021/10/05 09:23:12;;;;;;;1.57;0.70;;;14.90;99.90;;;;;;5090220;28;20674;-82
2021/10/05 09:25:44;;;;;;;0.40;0.40;;;14.90;99.90;;;;;;5073130;28;20273;-82
2021/10/05 09:28:25;;;;;;;0.50;0.50;;;15.10;99.90;;;;;;5086865;28;20687;-82
2021/10/05 09:31:01;;;;;;;1.20;0.67;;;15.50;99.90;;;;;;5069016;28;20178;-81
2021/10/05 09:33:28;;;;;;;1.60;1.50;;;15.60;99.90;;;;;;5092063;28;20176;-81
2021/10/05 09:35:54;;;;;;;0.83;0.63;;;15.90;99.90;;;;;;5078657;28;20170;-82
2021/10/05 09:38:22;;;;;;;0.67;0.67;;;16.10;99.90;;;;;;5081884;28;20189;-82
2021/10/05 09:41:04;;;;;;;0.23;0.23;;;16.40;99.90;;;;;;5090641;28;20660;-82
2021/10/05 09:43:30;;;;;;;0.50;0.50;;;16.60;99.90;;;;;;5071303;28;20275;-82
2021/10/05 09:46:15;;;;;;;0.47;0.43;;;16.70;99.90;;;;;;5091272;28;20176;-81
2021/10/05 09:48:44;;;;;;;0.77;0.77;;;16.80;99.90;;;;;;5086634;28;20180;-81
2021/10/05 09:51:23;;;;;;;0.50;0.50;;;16.90;99.90;;;;;;5097866;28;20230;-82
2021/10/05 09:53:52;;;;;;;0.73;0.43;;;17.00;99.90;;;;;;5071255;28;20680;-82
2021/10/05 09:56:19;;;;;;;0.97;0.70;;;17.00;99.90;;;;;;5071730;28;20303;-81
2021/10/05 09:58:45;;;;;;;3.27;1.27;;;17.40;99.90;;;;;;5087872;28;20179;-81
2021/10/05 10:01:11;;;;;;;0.93;0.93;;;17.80;99.90;;;;;;5083171;28;20186;-82
2021/10/05 10:03:37;;;;;;;0.87;0.87;;;18.10;99.90;;;;;;5084494;28;20208;-82
2021/10/05 10:06:04;;;;;;;1.03;0.53;;;18.20;99.90;;;;;;5068519;28;20253;-82
2021/10/05 10:08:33;;;;;;;1.10;1.00;;;17.70;99.90;;;;;;5089055;28;20179;-81
2021/10/05 10:10:59;;;;;;;1.43;0.57;;;17.30;99.90;;;;;;5078877;28;20172;-82
2021/10/05 10:13:25;;;;;;;0.53;0.50;;;17.00;99.90;;;;;;5087752;28;20184;-81
2021/10/05 10:15:56;;;;;;;0.50;0.50;;;16.80;99.90;;;;;;5073756;28;20178;-82
2021/10/05 10:18:22;;;;;;;0.50;0.50;;;16.70;99.90;;;;;;5081018;28;20185;-81
2021/10/05 10:21:08;;;;;;;2.07;0.53;;;16.80;99.90;;;;;;5069755;28;20213;-81
2021/10/05 10:23:34;;;;;;;0.73;0.53;;;16.80;99.90;;;;;;5082599;28;20229;-83
2021/10/05 10:26:03;;;;;;;3.97;0.70;;;16.70;99.90;;;;;;5083343;28;20177;-83
2021/10/05 10:28:37;;;;;;;0.93;0.83;;;16.70;99.90;;;;;;5082326;28;20201;-83
2021/10/05 10:31:07;;;;;;;0.97;0.70;;;16.80;99.90;;;;;;5085352;28;20172;-83
2021/10/05 10:33:53;;;;;;;1.47;0.43;;;17.10;99.90;;;;;;5070245;28;20276;-83
2021/10/05 10:36:42;;;;;;;1.60;0.50;;;17.60;99.90;;;;;;5060937;28;20252;-82
2021/10/05 10:39:15;;;;;;;2.10;0.57;;;17.80;99.90;;;;;;5074255;28;20191;-83
2021/10/05 10:41:46;;;;;;;1.20;0.50;;;17.70;99.90;;;;;;5084393;28;20178;-82
2021/10/05 10:44:14;;;;;;;0.33;0.33;;;17.90;99.90;;;;;;5073195;28;20215;-82
2021/10/05 10:46:41;;;;;;;0.50;0.50;;;17.90;99.90;;;;;;5072063;28;20177;-83
2021/10/05 10:49:19;;;;;;;0.30;0.30;;;18.20;99.90;;;;;;5069301;28;20242;-82
2021/10/05 10:51:48;;;;;;;0.60;0.57;;;18.40;99.90;;;;;;5090114;28;20176;-83
2021/10/05 10:54:17;;;;;;;0.33;0.33;;;18.20;99.90;;;;;;5086707;28;20663;-82
2021/10/05 10:56:44;;;;;;;0.30;0.30;;;18.00;99.90;;;;;;5081160;28;20689;-83
2021/10/05 10:59:13;;;;;;;0.37;0.37;;;18.00;99.90;;;;;;5085038;28;20179;-82
2021/10/05 11:01:52;;;;;;;0.30;0.30;;;18.10;99.90;;;;;;5079698;28;20741;-83
2021/10/05 11:04:18;;;;;;;0.83;0.40;;;18.20;99.90;;;;;;5076330;28;20723;-83
2021/10/05 11:06:52;;;;;;;0.27;0.23;;;18.30;99.90;;;;;;5067244;28;20669;-83
2021/10/05 11:09:18;;;;;;;0.40;0.30;;;18.40;99.90;;;;;;5081136;28;20204;-82
2021/10/05 11:11:49;;;;;;;0.37;0.37;;;18.50;99.90;;;;;;5078459;28;20200;-82
2021/10/05 11:14:29;;;;;;;0.20;0.20;;;18.60;99.90;;;;;;5071700;28;20729;-81
2021/10/05 11:17:00;;;;;;;0.30;0.30;;;18.60;99.90;;;;;;5069607;28;20184;-82
2021/10/05 11:19:31;;;;;;;0.10;0.10;;;18.60;99.90;;;;;;5077023;28;20181;-87
2021/10/05 11:21:59;;;;;;;0.20;0.20;;;18.80;99.90;;;;;;5081945;28;20225;-81
2021/10/05 11:24:47;;;;;;;0.30;0.20;;;19.20;99.90;;;;;;5088170;28;20223;-81
2021/10/05 11:27:23;;;;;;;1.33;0.30;;;19.50;99.90;;;;;;5085690;28;20188;-81
2021/10/05 11:29:50;;;;;;;0.10;0.10;;;19.50;99.90;;;;;;5087931;28;20170;-81
2021/10/05 11:32:18;;;;;;;0.27;0.27;;;19.50;99.90;;;;;;5090364;28;20187;-81
2021/10/05 11:34:46;;;;;;;0.63;0.20;;;19.50;99.90;;;;;;5090011;28;20231;-82
2021/10/05 11:37:15;;;;;;;0.30;0.30;;;19.60;99.90;;;;;;5083637;28;20548;-81
2021/10/05 11:39:43;;;;;;;0.40;0.40;;;19.60;99.90;;;;;;5090928;28;20759;-81
2021/10/05 11:42:11;;;;;;;0.27;0.27;;;19.60;99.90;;;;;;5078555;28;20193;-81
2021/10/05 11:44:46;;;;;;;0.20;0.20;;;19.60;99.90;;;;;;5074128;28;20626;-81
2021/10/05 11:47:17;;;;;;;0.33;0.20;;;19.60;99.90;;;;;;5086790;28;20168;-81
2021/10/05 11:49:49;;;;;;;0.30;0.30;;;19.60;99.90;;;;;;5084631;28;20181;-81
2021/10/05 11:52:18;;;;;;;0.20;0.20;;;19.60;99.90;;;;;;5080907;28;20178;-81
2021/10/05 11:54:45;;;;;;;0.10;0.10;;;19.30;99.90;;;;;;5080621;28;20233;-81
2021/10/05 11:57:16;;;;;;;0.30;0.30;;;19.30;99.90;;;;;;5081914;28;20660;-81
2021/10/05 11:59:43;;;;;;;0.10;0.10;;;19.20;99.90;;;;;;5094442;28;20204;-81
2021/10/05 12:02:17;;;;;;;0.13;0.13;;;19.00;99.90;;;;;;5092552;28;20677;-81
2021/10/05 12:04:46;;;;;;;1.33;0.33;;;18.90;99.90;;;;;;5076049;28;20273;-80
2021/10/05 12:07:18;;;;;;;0.20;0.20;;;19.20;99.90;;;;;;5094381;28;20178;-81
2021/10/05 12:09:46;;;;;;;0.20;0.20;;;19.20;99.90;;;;;;5089215;28;20721;-81
2021/10/05 12:12:14;;;;;;;0.20;0.20;;;19.00;99.90;;;;;;5084993;28;20176;-81
2021/10/05 12:15:01;;;;;;;0.20;0.20;;;19.00;99.90;;;;;;5090124;28;20201;-81
2021/10/05 12:17:29;;;;;;;0.10;0.10;;;19.00;99.90;;;;;;5089836;28;20204;-81
2021/10/05 12:20:02;;;;;;;0.10;0.10;;;19.00;99.90;;;;;;5087298;28;20179;-81
2021/10/05 12:22:38;;;;;;;0.10;0.10;;;18.80;99.90;;;;;;5089648;28;20571;-81
2021/10/05 12:25:16;;;;;;;0.13;0.13;;;18.70;99.90;;;;;;5070188;28;20225;-81
2021/10/05 12:27:43;;;;;;;1.20;0.60;;;18.80;99.90;;;;;;5080640;28;20626;-81
2021/10/05 12:30:13;;;;;;;0.10;0.10;;;19.00;99.90;;;;;;5092267;28;20599;-81
2021/10/05 12:32:41;;;;;;;0.20;0.20;;;19.30;99.90;;;;;;5086568;28;20226;-82
2021/10/05 12:35:36;;;;;;;0.10;0.10;;;19.80;99.90;;;;;;5077234;28;20210;-81
2021/10/05 12:38:02;;;;;;;0.17;0.10;;;20.20;99.90;;;;;;5098209;28;20267;-81
2021/10/05 12:40:51;;;;;;;0.20;0.20;;;20.60;99.90;;;;;;5086138;28;20614;-81
2021/10/05 12:43:23;;;;;;;0.10;0.10;;;20.70;99.90;;;;;;5078013;28;20553;-81
2021/10/05 12:45:59;;;;;;;0.10;0.10;;;20.70;99.90;;;;;;5087928;28;20170;-82
2021/10/05 12:48:36;;;;;;;1.60;0.73;;;20.40;99.90;;;;;;5080024;28;20549;-82
2021/10/05 12:51:10;;;;;;;0.20;0.20;;;19.80;99.90;;;;;;5103721;28;20221;-81